sensor_id;sensor_type;location;lat;lon;timestamp;pressure;altitude;pressure_sealevel;temperature;humidity
77799;BME280;66989;50.426;15.352;2024-03-17T00:00:42;98662.84;;;2.73;94.73
77799;BME280;66989;50.426;15.352;2024-03-17T00:03:07;98666.47;;;2.69;94.63
77799;BME280;66989;50.426;15.352;2024-03-17T00:05:36;98661.34;;;2.66;94.80
77799;BME280;66989;50.426;15.352;2024-03-17T00:08:03;98663.09;;;2.66;95.03
77799;BME280;66989;50.426;15.352;2024-03-17T00:10:31;98658.81;;;2.65;95.38
77799;BME280;66989;50.426;15.352;2024-03-17T00:12:56;98663.94;;;2.66;95.64
77799;BME280;66989;50.426;15.352;2024-03-17T00:15:22;98665.72;;;2.66;95.57
77799;BME280;66989;50.426;15.352;2024-03-17T00:17:48;98661.34;;;2.66;95.63
77799;BME280;66989;50.426;15.352;2024-03-17T00:20:13;98662.19;;;2.67;95.33
77799;BME280;66989;50.426;15.352;2024-03-17T00:22:46;98670.81;;;2.69;95.36
77799;BME280;66989;50.426;15.352;2024-03-17T00:25:12;98665.69;;;2.67;95.48
77799;BME280;66989;50.426;15.352;2024-03-17T00:27:38;98671.59;;;2.71;95.08
77799;BME280;66989;50.426;15.352;2024-03-17T00:30:07;98668.16;;;2.70;94.55
77799;BME280;66989;50.426;15.352;2024-03-17T00:32:41;98672.41;;;2.73;94.50
77799;BME280;66989;50.426;15.352;2024-03-17T00:35:09;98668.03;;;2.73;93.99
77799;BME280;66989;50.426;15.352;2024-03-17T00:37:35;98667.06;;;2.76;93.91
77799;BME280;66989;50.426;15.352;2024-03-17T00:40:02;98670.47;;;2.78;93.45
77799;BME280;66989;50.426;15.352;2024-03-17T00:42:28;98665.97;;;2.82;93.07
77799;BME280;66989;50.426;15.352;2024-03-17T00:44:53;98666.81;;;2.82;92.97
77799;BME280;66989;50.426;15.352;2024-03-17T00:47:20;98666.78;;;2.84;92.81
77799;BME280;66989;50.426;15.352;2024-03-17T00:49:45;98666.72;;;2.85;92.95
77799;BME280;66989;50.426;15.352;2024-03-17T00:52:10;98668.41;;;2.86;92.44
77799;BME280;66989;50.426;15.352;2024-03-17T00:54:36;98668.34;;;2.88;92.48
77799;BME280;66989;50.426;15.352;2024-03-17T00:57:01;98668.41;;;2.86;92.15
77799;BME280;66989;50.426;15.352;2024-03-17T00:59:27;98668.41;;;2.86;92.23
77799;BME280;66989;50.426;15.352;2024-03-17T01:01:52;98675.38;;;2.86;92.27
77799;BME280;66989;50.426;15.352;2024-03-17T01:04:18;98678.09;;;2.83;91.98
77799;BME280;66989;50.426;15.352;2024-03-17T01:06:44;98677.31;;;2.81;92.08
77799;BME280;66989;50.426;15.352;2024-03-17T01:09:10;98665.31;;;2.76;92.16
77799;BME280;66989;50.426;15.352;2024-03-17T01:11:35;98662.84;;;2.73;92.11
77799;BME280;66989;50.426;15.352;2024-03-17T01:14:01;98666.34;;;2.72;92.14
77799;BME280;66989;50.426;15.352;2024-03-17T01:16:26;98673.34;;;2.70;92.08
77799;BME280;66989;50.426;15.352;2024-03-17T01:18:52;98677.81;;;2.67;92.21
77799;BME280;66989;50.426;15.352;2024-03-17T01:21:19;98674.50;;;2.63;92.33
77799;BME280;66989;50.426;15.352;2024-03-17T01:23:45;98671.09;;;2.61;92.26
77799;BME280;66989;50.426;15.352;2024-03-17T01:26:10;98672.13;;;2.57;92.72
77799;BME280;66989;50.426;15.352;2024-03-17T01:28:36;98670.41;;;2.56;92.76
77799;BME280;66989;50.426;15.352;2024-03-17T01:31:05;98676.66;;;2.52;92.70
77799;BME280;66989;50.426;15.352;2024-03-17T01:33:31;98675.84;;;2.50;92.62
77799;BME280;66989;50.426;15.352;2024-03-17T01:35:57;98679.44;;;2.46;92.74
77799;BME280;66989;50.426;15.352;2024-03-17T01:38:22;98681.28;;;2.44;92.82
77799;BME280;66989;50.426;15.352;2024-03-17T01:40:47;98677.88;;;2.42;92.94
77799;BME280;66989;50.426;15.352;2024-03-17T01:43:13;98670.13;;;2.40;93.08
77799;BME280;66989;50.426;15.352;2024-03-17T01:45:38;98675.31;;;2.40;93.32
77799;BME280;66989;50.426;15.352;2024-03-17T01:48:04;98674.53;;;2.38;93.15
77799;BME280;66989;50.426;15.352;2024-03-17T01:50:37;98673.75;;;2.36;93.38
77799;BME280;66989;50.426;15.352;2024-03-17T01:53:05;98680.75;;;2.34;93.51
77799;BME280;66989;50.426;15.352;2024-03-17T01:55:37;98672.16;;;2.32;94.02
77799;BME280;66989;50.426;15.352;2024-03-17T01:58:04;98674.94;;;2.28;93.84
77799;BME280;66989;50.426;15.352;2024-03-17T02:00:35;98677.63;;;2.24;93.98
77799;BME280;66989;50.426;15.352;2024-03-17T02:03:05;98676.94;;;2.19;94.08
77799;BME280;66989;50.426;15.352;2024-03-17T02:05:32;98682.25;;;2.16;94.17
77799;BME280;66989;50.426;15.352;2024-03-17T02:07:59;98675.34;;;2.15;94.27
77799;BME280;66989;50.426;15.352;2024-03-17T02:10:24;98683.34;;;2.09;94.04
77799;BME280;66989;50.426;15.352;2024-03-17T02:12:50;98681.09;;;2.00;94.12
77799;BME280;66989;50.426;15.352;2024-03-17T02:15:16;98678.00;;;1.89;93.75
77799;BME280;66989;50.426;15.352;2024-03-17T02:17:41;98679.06;;;1.83;94.47
77799;BME280;66989;50.426;15.352;2024-03-17T02:20:07;98674.13;;;1.76;94.43
77799;BME280;66989;50.426;15.352;2024-03-17T02:22:34;98674.28;;;1.71;95.05
77799;BME280;66989;50.426;15.352;2024-03-17T02:25:00;98674.50;;;1.65;95.23
77799;BME280;66989;50.426;15.352;2024-03-17T02:27:25;98681.47;;;1.63;95.86
77799;BME280;66989;50.426;15.352;2024-03-17T02:29:51;98669.59;;;1.56;95.61
77799;BME280;66989;50.426;15.352;2024-03-17T02:32:16;98680.91;;;1.53;96.14
77799;BME280;66989;50.426;15.352;2024-03-17T02:34:42;98674.09;;;1.51;96.13
77799;BME280;66989;50.426;15.352;2024-03-17T02:37:09;98683.63;;;1.50;96.65
77799;BME280;66989;50.426;15.352;2024-03-17T02:39:35;98673.25;;;1.50;96.29
77799;BME280;66989;50.426;15.352;2024-03-17T02:42:04;98680.06;;;1.53;96.49
77799;BME280;66989;50.426;15.352;2024-03-17T02:44:31;98677.44;;;1.54;96.96
77799;BME280;66989;50.426;15.352;2024-03-17T02:46:58;98674.72;;;1.57;96.74
77799;BME280;66989;50.426;15.352;2024-03-17T02:49:27;98671.28;;;1.57;96.56
77799;BME280;66989;50.426;15.352;2024-03-17T02:51:54;98677.31;;;1.57;96.37
77799;BME280;66989;50.426;15.352;2024-03-17T02:54:20;98676.41;;;1.58;96.32
77799;BME280;66989;50.426;15.352;2024-03-17T02:56:45;98673.81;;;1.58;96.55
77799;BME280;66989;50.426;15.352;2024-03-17T02:59:12;98668.47;;;1.63;96.39
77799;BME280;66989;50.426;15.352;2024-03-17T03:01:37;98678.78;;;1.66;96.61
77799;BME280;66989;50.426;15.352;2024-03-17T03:04:02;98671.75;;;1.68;96.35
77799;BME280;66989;50.426;15.352;2024-03-17T03:06:28;98674.38;;;1.68;96.60
77799;BME280;66989;50.426;15.352;2024-03-17T03:08:53;98680.31;;;1.71;96.31
77799;BME280;66989;50.426;15.352;2024-03-17T03:11:19;98680.25;;;1.73;96.83
77799;BME280;66989;50.426;15.352;2024-03-17T03:13:44;98682.84;;;1.75;96.72
77799;BME280;66989;50.426;15.352;2024-03-17T03:16:11;98689.75;;;1.74;96.02
77799;BME280;66989;50.426;15.352;2024-03-17T03:18:38;98690.56;;;1.76;96.45
77799;BME280;66989;50.426;15.352;2024-03-17T03:21:07;98680.97;;;1.78;96.36
77799;BME280;66989;50.426;15.352;2024-03-17T03:23:33;98672.31;;;1.78;95.89
77799;BME280;66989;50.426;15.352;2024-03-17T03:26:00;98675.72;;;1.80;96.10
77799;BME280;66989;50.426;15.352;2024-03-17T03:28:31;98674.75;;;1.82;96.16
77799;BME280;66989;50.426;15.352;2024-03-17T03:30:56;98676.44;;;1.83;96.06
77799;BME280;66989;50.426;15.352;2024-03-17T03:33:22;98675.44;;;1.87;96.41
77799;BME280;66989;50.426;15.352;2024-03-17T03:35:48;98671.00;;;1.91;95.90
77799;BME280;66989;50.426;15.352;2024-03-17T03:38:14;98677.84;;;1.93;95.61
77799;BME280;66989;50.426;15.352;2024-03-17T03:40:43;98679.50;;;1.96;95.45
77799;BME280;66989;50.426;15.352;2024-03-17T03:43:09;98680.41;;;1.95;95.59
77799;BME280;66989;50.426;15.352;2024-03-17T03:45:35;98679.50;;;1.96;95.49
77799;BME280;66989;50.426;15.352;2024-03-17T03:48:01;98675.22;;;1.95;95.57
77799;BME280;66989;50.426;15.352;2024-03-17T03:50:30;98676.09;;;1.94;95.34
77799;BME280;66989;50.426;15.352;2024-03-17T03:52:56;98678.69;;;1.94;95.30
77799;BME280;66989;50.426;15.352;2024-03-17T03:55:21;98679.66;;;1.91;95.15
77799;BME280;66989;50.426;15.352;2024-03-17T03:57:47;98684.84;;;1.91;95.75
77799;BME280;66989;50.426;15.352;2024-03-17T04:00:16;98687.41;;;1.93;95.71
77799;BME280;66989;50.426;15.352;2024-03-17T04:02:47;98687.34;;;1.94;95.98
77799;BME280;66989;50.426;15.352;2024-03-17T04:05:12;98696.78;;;1.97;95.99
77799;BME280;66989;50.426;15.352;2024-03-17T04:07:38;98687.19;;;1.99;96.05
77799;BME280;66989;50.426;15.352;2024-03-17T04:10:05;98690.59;;;2.01;96.13
77799;BME280;66989;50.426;15.352;2024-03-17T04:12:30;98689.69;;;2.02;95.85
77799;BME280;66989;50.426;15.352;2024-03-17T04:15:02;98692.28;;;2.02;95.68
77799;BME280;66989;50.426;15.352;2024-03-17T04:17:28;98684.56;;;2.01;95.94
77799;BME280;66989;50.426;15.352;2024-03-17T04:19:54;98684.56;;;2.01;95.64
77799;BME280;66989;50.426;15.352;2024-03-17T04:22:20;98683.56;;;2.03;95.65
77799;BME280;66989;50.426;15.352;2024-03-17T04:24:47;98684.50;;;2.02;95.62
77799;BME280;66989;50.426;15.352;2024-03-17T04:27:18;98686.19;;;2.03;95.44
77799;BME280;66989;50.426;15.352;2024-03-17T04:29:46;98682.63;;;2.06;95.61
77799;BME280;66989;50.426;15.352;2024-03-17T04:32:13;98686.94;;;2.07;95.84
77799;BME280;66989;50.426;15.352;2024-03-17T04:34:38;98687.78;;;2.07;95.42
77799;BME280;66989;50.426;15.352;2024-03-17T04:37:04;98683.44;;;2.08;95.39
77799;BME280;66989;50.426;15.352;2024-03-17T04:39:29;98686.94;;;2.07;95.71
77799;BME280;66989;50.426;15.352;2024-03-17T04:41:54;98684.38;;;2.05;95.38
77799;BME280;66989;50.426;15.352;2024-03-17T04:44:20;98687.03;;;2.04;95.30
77799;BME280;66989;50.426;15.352;2024-03-17T04:46:45;98687.03;;;2.04;95.33
77799;BME280;66989;50.426;15.352;2024-03-17T04:49:11;98684.38;;;2.05;95.67
77799;BME280;66989;50.426;15.352;2024-03-17T04:51:36;98683.50;;;2.05;95.30
77799;BME280;66989;50.426;15.352;2024-03-17T04:54:02;98692.16;;;2.05;95.58
77799;BME280;66989;50.426;15.352;2024-03-17T04:56:31;98698.19;;;2.07;95.25
77799;BME280;66989;50.426;15.352;2024-03-17T04:58:56;98692.97;;;2.07;95.21
77799;BME280;66989;50.426;15.352;2024-03-17T05:01:21;98705.84;;;2.10;95.48
77799;BME280;66989;50.426;15.352;2024-03-17T05:03:47;98709.16;;;2.15;95.74
77799;BME280;66989;50.426;15.352;2024-03-17T05:06:12;98706.47;;;2.18;95.33
77799;BME280;66989;50.426;15.352;2024-03-17T05:08:37;98711.50;;;2.23;95.69
77799;BME280;66989;50.426;15.352;2024-03-17T05:11:04;98712.19;;;2.28;95.42
77799;BME280;66989;50.426;15.352;2024-03-17T05:13:31;98711.91;;;2.36;95.43
77799;BME280;66989;50.426;15.352;2024-03-17T05:15:56;98715.19;;;2.41;95.36
77799;BME280;66989;50.426;15.352;2024-03-17T05:18:23;98716.72;;;2.46;95.01
77799;BME280;66989;50.426;15.352;2024-03-17T05:21:03;98714.78;;;2.53;94.87
77799;BME280;66989;50.426;15.352;2024-03-17T05:23:31;98722.38;;;2.59;94.62
77799;BME280;66989;50.426;15.352;2024-03-17T05:25:57;98723.72;;;2.69;94.17
77799;BME280;66989;50.426;15.352;2024-03-17T05:28:24;98732.84;;;2.81;93.68
77799;BME280;66989;50.426;15.352;2024-03-17T05:30:50;98728.25;;;2.88;93.26
77799;BME280;66989;50.426;15.352;2024-03-17T05:33:19;98734.19;;;2.91;92.57
77799;BME280;66989;50.426;15.352;2024-03-17T05:36:00;98730.50;;;2.97;92.21
77799;BME280;66989;50.426;15.352;2024-03-17T05:38:29;98734.72;;;3.01;91.92
77799;BME280;66989;50.426;15.352;2024-03-17T05:41:06;98739.81;;;3.04;91.64
77799;BME280;66989;50.426;15.352;2024-03-17T05:43:33;98734.38;;;3.10;91.61
77799;BME280;66989;50.426;15.352;2024-03-17T05:46:02;98740.25;;;3.15;91.06
77799;BME280;66989;50.426;15.352;2024-03-17T05:48:28;98745.22;;;3.21;90.86
77799;BME280;66989;50.426;15.352;2024-03-17T05:50:53;98749.25;;;3.30;90.76
77799;BME280;66989;50.426;15.352;2024-03-17T05:53:20;98746.31;;;3.38;90.75
77799;BME280;66989;50.426;15.352;2024-03-17T05:55:46;98754.75;;;3.44;90.23
77799;BME280;66989;50.426;15.352;2024-03-17T05:58:13;98748.44;;;3.50;89.84
77799;BME280;66989;50.426;15.352;2024-03-17T06:00:39;98744.63;;;3.59;89.78
77799;BME280;66989;50.426;15.352;2024-03-17T06:03:05;98751.31;;;3.66;89.43
77799;BME280;66989;50.426;15.352;2024-03-17T06:05:32;98746.56;;;3.75;88.20
77799;BME280;66989;50.426;15.352;2024-03-17T06:07:58;98743.84;;;3.78;87.56
77799;BME280;66989;50.426;15.352;2024-03-17T06:10:23;98749.53;;;3.88;88.15
77799;BME280;66989;50.426;15.352;2024-03-17T06:12:52;98751.78;;;3.97;87.21
77799;BME280;66989;50.426;15.352;2024-03-17T06:15:17;98744.47;;;4.05;87.13
77799;BME280;66989;50.426;15.352;2024-03-17T06:17:43;98753.59;;;4.16;86.54
77799;BME280;66989;50.426;15.352;2024-03-17T06:20:09;98746.13;;;4.28;86.27
77799;BME280;66989;50.426;15.352;2024-03-17T06:22:39;98747.81;;;4.50;85.46
77799;BME280;66989;50.426;15.352;2024-03-17T06:25:05;98752.75;;;4.76;86.43
77799;BME280;66989;50.426;15.352;2024-03-17T06:27:32;98748.47;;;5.13;87.01
77799;BME280;66989;50.426;15.352;2024-03-17T06:29:59;98748.66;;;5.46;85.61
77799;BME280;66989;50.426;15.352;2024-03-17T06:32:26;98742.06;;;5.75;83.57
77799;BME280;66989;50.426;15.352;2024-03-17T06:34:51;98742.09;;;6.10;82.96
77799;BME280;66989;50.426;15.352;2024-03-17T06:37:17;98751.59;;;6.30;79.99
77799;BME280;66989;50.426;15.352;2024-03-17T06:39:45;98752.59;;;6.44;78.52
77799;BME280;66989;50.426;15.352;2024-03-17T06:42:10;98760.03;;;6.52;77.34
77799;BME280;66989;50.426;15.352;2024-03-17T06:44:37;98764.81;;;6.61;76.99
77799;BME280;66989;50.426;15.352;2024-03-17T06:47:02;98765.34;;;6.68;76.48
77799;BME280;66989;50.426;15.352;2024-03-17T06:49:29;98757.50;;;7.17;76.36
77799;BME280;66989;50.426;15.352;2024-03-17T06:51:58;98758.53;;;7.46;74.77
77799;BME280;66989;50.426;15.352;2024-03-17T06:54:24;98759.97;;;7.67;72.72
77799;BME280;66989;50.426;15.352;2024-03-17T06:56:49;98755.75;;;7.81;72.02
77799;BME280;66989;50.426;15.352;2024-03-17T06:59:17;98763.69;;;8.11;71.46
77799;BME280;66989;50.426;15.352;2024-03-17T07:01:42;98761.06;;;8.55;70.56
77799;BME280;66989;50.426;15.352;2024-03-17T07:04:07;98764.03;;;9.08;69.34
77799;BME280;66989;50.426;15.352;2024-03-17T07:06:33;98765.13;;;9.46;67.61
77799;BME280;66989;50.426;15.352;2024-03-17T07:08:58;98762.59;;;9.86;65.66
77799;BME280;66989;50.426;15.352;2024-03-17T07:11:24;98762.53;;;10.27;65.48
77799;BME280;66989;50.426;15.352;2024-03-17T07:13:50;98765.66;;;10.72;63.15
77799;BME280;66989;50.426;15.352;2024-03-17T07:16:18;98765.56;;;11.12;62.15
77799;BME280;66989;50.426;15.352;2024-03-17T07:18:43;98759.56;;;11.59;61.94
77799;BME280;66989;50.426;15.352;2024-03-17T07:21:10;98757.41;;;11.77;59.46
77799;BME280;66989;50.426;15.352;2024-03-17T07:23:36;98752.97;;;11.78;58.40
77799;BME280;66989;50.426;15.352;2024-03-17T07:26:02;98763.53;;;12.02;57.99
77799;BME280;66989;50.426;15.352;2024-03-17T07:28:30;98766.31;;;12.24;56.43
77799;BME280;66989;50.426;15.352;2024-03-17T07:30:59;98763.19;;;12.06;55.03
77799;BME280;66989;50.426;15.352;2024-03-17T07:33:29;98759.88;;;11.68;56.30
77799;BME280;66989;50.426;15.352;2024-03-17T07:35:58;98767.16;;;11.64;57.01
77799;BME280;66989;50.426;15.352;2024-03-17T07:38:26;98763.75;;;11.75;55.96
77799;BME280;66989;50.426;15.352;2024-03-17T07:41:00;98764.44;;;11.89;56.37
77799;BME280;66989;50.426;15.352;2024-03-17T07:43:27;98768.81;;;11.78;56.31
77799;BME280;66989;50.426;15.352;2024-03-17T07:46:03;98770.91;;;11.85;55.94
77799;BME280;66989;50.426;15.352;2024-03-17T07:48:30;98770.16;;;12.07;54.91
77799;BME280;66989;50.426;15.352;2024-03-17T07:51:02;98770.13;;;12.20;53.64
77799;BME280;66989;50.426;15.352;2024-03-17T07:53:30;98773.97;;;12.40;53.72
77799;BME280;66989;50.426;15.352;2024-03-17T07:58:27;98777.88;;;12.69;52.38
77799;BME280;66989;50.426;15.352;2024-03-17T08:00:57;98779.13;;;12.88;52.11
77799;BME280;66989;50.426;15.352;2024-03-17T08:03:25;98775.06;;;13.06;52.28
77799;BME280;66989;50.426;15.352;2024-03-17T08:05:50;98779.41;;;13.18;51.71
77799;BME280;66989;50.426;15.352;2024-03-17T08:08:17;98781.69;;;13.34;51.37
77799;BME280;66989;50.426;15.352;2024-03-17T08:10:43;98776.53;;;13.33;51.06
77799;BME280;66989;50.426;15.352;2024-03-17T08:13:10;98772.03;;;13.67;50.48
77799;BME280;66989;50.426;15.352;2024-03-17T08:15:36;98775.78;;;13.42;50.02
77799;BME280;66989;50.426;15.352;2024-03-17T08:18:02;98765.06;;;13.55;50.54
77799;BME280;66989;50.426;15.352;2024-03-17T08:20:30;98758.06;;;13.76;49.47
77799;BME280;66989;50.426;15.352;2024-03-17T08:22:55;98761.63;;;13.97;48.52
77799;BME280;66989;50.426;15.352;2024-03-17T08:25:21;98759.81;;;13.32;50.88
77799;BME280;66989;50.426;15.352;2024-03-17T08:27:46;98769.22;;;12.67;50.81
77799;BME280;66989;50.426;15.352;2024-03-17T08:30:14;98770.84;;;12.46;52.53
77799;BME280;66989;50.426;15.352;2024-03-17T08:32:40;98763.47;;;12.74;51.84
77799;BME280;66989;50.426;15.352;2024-03-17T08:35:06;98770.06;;;12.33;51.65
77799;BME280;66989;50.426;15.352;2024-03-17T08:37:32;98757.69;;;11.49;54.27
77799;BME280;66989;50.426;15.352;2024-03-17T08:39:57;98765.03;;;11.32;54.65
77799;BME280;66989;50.426;15.352;2024-03-17T08:42:24;98773.47;;;10.99;54.33
77799;BME280;66989;50.426;15.352;2024-03-17T08:44:49;98767.16;;;10.76;54.97
77799;BME280;66989;50.426;15.352;2024-03-17T08:47:14;98768.63;;;10.55;55.91
77799;BME280;66989;50.426;15.352;2024-03-17T08:49:40;98766.63;;;10.31;56.77
77799;BME280;66989;50.426;15.352;2024-03-17T08:52:05;98764.16;;;10.16;58.13
77799;BME280;66989;50.426;15.352;2024-03-17T08:54:32;98760.19;;;10.23;57.09
77799;BME280;66989;50.426;15.352;2024-03-17T08:56:58;98759.78;;;10.29;57.73
77799;BME280;66989;50.426;15.352;2024-03-17T08:59:23;98756.78;;;10.21;56.79
77799;BME280;66989;50.426;15.352;2024-03-17T09:01:51;98757.81;;;10.05;58.12
77799;BME280;66989;50.426;15.352;2024-03-17T09:04:16;98748.56;;;10.13;58.39
77799;BME280;66989;50.426;15.352;2024-03-17T09:06:43;98755.44;;;9.88;59.43
77799;BME280;66989;50.426;15.352;2024-03-17T09:09:08;98756.91;;;10.32;56.13
77799;BME280;66989;50.426;15.352;2024-03-17T09:11:34;98758.59;;;10.73;54.36
77799;BME280;66989;50.426;15.352;2024-03-17T09:13:59;98751.03;;;10.81;53.62
77799;BME280;66989;50.426;15.352;2024-03-17T09:16:25;98755.34;;;10.82;53.13
77799;BME280;66989;50.426;15.352;2024-03-17T09:18:51;98754.59;;;10.54;54.97
77799;BME280;66989;50.426;15.352;2024-03-17T09:21:16;98752.88;;;10.14;54.41
77799;BME280;66989;50.426;15.352;2024-03-17T09:23:43;98751.63;;;10.06;54.41
77799;BME280;66989;50.426;15.352;2024-03-17T09:26:10;98754.16;;;9.81;56.00
77799;BME280;66989;50.426;15.352;2024-03-17T09:28:41;98750.56;;;9.82;56.91
77799;BME280;66989;50.426;15.352;2024-03-17T09:31:06;98759.44;;;9.67;55.88
77799;BME280;66989;50.426;15.352;2024-03-17T09:33:33;98753.63;;;10.16;54.53
77799;BME280;66989;50.426;15.352;2024-03-17T09:36:01;98749.50;;;10.39;56.22
77799;BME280;66989;50.426;15.352;2024-03-17T09:38:27;98747.97;;;10.34;55.02
77799;BME280;66989;50.426;15.352;2024-03-17T09:40:53;98745.31;;;10.22;55.74
77799;BME280;66989;50.426;15.352;2024-03-17T09:43:21;98740.19;;;9.93;56.13
77799;BME280;66989;50.426;15.352;2024-03-17T09:45:47;98740.47;;;9.89;56.79
77799;BME280;66989;50.426;15.352;2024-03-17T09:48:17;98747.75;;;10.77;54.70
77799;BME280;66989;50.426;15.352;2024-03-17T09:50:51;98745.31;;;11.12;52.86
77799;BME280;66989;50.426;15.352;2024-03-17T09:53:29;98740.34;;;11.81;49.56
77799;BME280;66989;50.426;15.352;2024-03-17T09:56:22;98742.09;;;11.70;48.52
77799;BME280;66989;50.426;15.352;2024-03-17T09:58:48;98741.59;;;11.28;48.86
77799;BME280;66989;50.426;15.352;2024-03-17T10:01:14;98736.84;;;11.07;50.18
77799;BME280;66989;50.426;15.352;2024-03-17T10:03:50;98739.69;;;11.67;48.62
77799;BME280;66989;50.426;15.352;2024-03-17T10:06:21;98731.44;;;12.19;46.91
77799;BME280;66989;50.426;15.352;2024-03-17T10:08:54;98724.66;;;13.08;45.80
77799;BME280;66989;50.426;15.352;2024-03-17T10:11:25;98718.75;;;13.38;44.79
77799;BME280;66989;50.426;15.352;2024-03-17T10:14:10;98713.31;;;14.26;42.22
77799;BME280;66989;50.426;15.352;2024-03-17T10:16:37;98716.00;;;13.71;42.67
77799;BME280;66989;50.426;15.352;2024-03-17T10:19:09;98716.56;;;14.50;42.85
77799;BME280;66989;50.426;15.352;2024-03-17T10:21:48;98714.78;;;14.51;42.15
77799;BME280;66989;50.426;15.352;2024-03-17T10:24:25;98709.22;;;15.46;39.67
77799;BME280;66989;50.426;15.352;2024-03-17T10:26:56;98712.13;;;15.12;39.39
77799;BME280;66989;50.426;15.352;2024-03-17T10:29:27;98714.28;;;14.88;38.82
77799;BME280;66989;50.426;15.352;2024-03-17T10:31:55;98710.53;;;14.69;39.95
77799;BME280;66989;50.426;15.352;2024-03-17T10:34:25;98712.25;;;15.81;38.67
77799;BME280;66989;50.426;15.352;2024-03-17T10:37:05;98708.97;;;16.94;36.68
77799;BME280;66989;50.426;15.352;2024-03-17T10:39:32;98704.50;;;17.50;35.80
77799;BME280;66989;50.426;15.352;2024-03-17T10:42:01;98707.03;;;17.51;33.99
77799;BME280;66989;50.426;15.352;2024-03-17T10:44:28;98702.28;;;16.71;35.18
77799;BME280;66989;50.426;15.352;2024-03-17T10:46:55;98715.06;;;16.09;35.36
77799;BME280;66989;50.426;15.352;2024-03-17T10:49:30;98700.53;;;15.34;37.25
77799;BME280;66989;50.426;15.352;2024-03-17T10:52:07;98700.09;;;14.98;38.76
77799;BME280;66989;50.426;15.352;2024-03-17T10:54:34;98701.91;;;16.07;37.56
77799;BME280;66989;50.426;15.352;2024-03-17T10:59:41;98701.03;;;15.28;38.12
77799;BME280;66989;50.426;15.352;2024-03-17T11:02:23;98696.47;;;14.78;38.99
77799;BME280;66989;50.426;15.352;2024-03-17T11:04:54;98687.97;;;15.15;38.79
77799;BME280;66989;50.426;15.352;2024-03-17T11:07:21;98687.72;;;14.88;39.28
77799;BME280;66989;50.426;15.352;2024-03-17T11:09:49;98694.38;;;14.31;38.77
77799;BME280;66989;50.426;15.352;2024-03-17T11:17:53;98685.59;;;15.52;37.30
77799;BME280;66989;50.426;15.352;2024-03-17T11:20:24;98689.03;;;16.13;36.84
77799;BME280;66989;50.426;15.352;2024-03-17T11:22:52;98684.25;;;15.87;36.58
77799;BME280;66989;50.426;15.352;2024-03-17T11:28:46;98679.78;;;15.28;37.25
77799;BME280;66989;50.426;15.352;2024-03-17T11:31:41;98672.81;;;17.19;34.58
77799;BME280;66989;50.426;15.352;2024-03-17T11:34:26;98664.63;;;18.73;32.14
77799;BME280;66989;50.426;15.352;2024-03-17T11:36:52;98676.22;;;18.82;31.65
77799;BME280;66989;50.426;15.352;2024-03-17T11:39:51;98674.44;;;17.57;33.60
77799;BME280;66989;50.426;15.352;2024-03-17T11:42:25;98679.06;;;16.63;34.52
77799;BME280;66989;50.426;15.352;2024-03-17T11:45:03;98670.38;;;15.64;34.90
77799;BME280;66989;50.426;15.352;2024-03-17T11:47:39;98673.63;;;14.97;35.83
77799;BME280;66989;50.426;15.352;2024-03-17T11:50:07;98673.91;;;16.13;34.79
77799;BME280;66989;50.426;15.352;2024-03-17T11:52:34;98656.06;;;17.82;33.29
77799;BME280;66989;50.426;15.352;2024-03-17T11:55:00;98651.56;;;17.82;32.43
77799;BME280;66989;50.426;15.352;2024-03-17T11:57:27;98650.53;;;16.83;34.00
77799;BME280;66989;50.426;15.352;2024-03-17T11:59:55;98654.84;;;16.37;34.88
77799;BME280;66989;50.426;15.352;2024-03-17T12:02:30;98657.22;;;15.72;35.80
77799;BME280;66989;50.426;15.352;2024-03-17T12:05:00;98654.69;;;15.11;35.60
77799;BME280;66989;50.426;15.352;2024-03-17T12:07:29;98654.56;;;14.51;37.45
77799;BME280;66989;50.426;15.352;2024-03-17T12:09:57;98634.84;;;14.03;37.92
77799;BME280;66989;50.426;15.352;2024-03-17T12:12:25;98641.03;;;14.13;38.15
77799;BME280;66989;50.426;15.352;2024-03-17T12:14:57;98634.41;;;16.18;35.75
77799;BME280;66989;50.426;15.352;2024-03-17T12:17:24;98614.06;;;17.66;33.73
77799;BME280;66989;50.426;15.352;2024-03-17T12:19:50;98620.28;;;19.81;31.49
77799;BME280;66989;50.426;15.352;2024-03-17T12:24:51;98614.47;;;19.35;30.23
77799;BME280;66989;50.426;15.352;2024-03-17T12:27:24;98613.59;;;17.88;32.05
77799;BME280;66989;50.426;15.352;2024-03-17T12:29:53;98619.63;;;18.34;31.74
77799;BME280;66989;50.426;15.352;2024-03-17T12:32:23;98613.94;;;19.24;30.49
77799;BME280;66989;50.426;15.352;2024-03-17T12:34:50;98609.78;;;20.04;29.36
77799;BME280;66989;50.426;15.352;2024-03-17T12:37:18;98597.06;;;20.94;28.74
77799;BME280;66989;50.426;15.352;2024-03-17T12:39:44;98600.44;;;22.04;26.59
77799;BME280;66989;50.426;15.352;2024-03-17T12:42:14;98589.03;;;23.29;25.56
77799;BME280;66989;50.426;15.352;2024-03-17T12:44:53;98593.88;;;21.84;26.34
77799;BME280;66989;50.426;15.352;2024-03-17T12:47:24;98602.13;;;22.06;26.39
77799;BME280;66989;50.426;15.352;2024-03-17T12:49:59;98608.88;;;20.53;27.74
77799;BME280;66989;50.426;15.352;2024-03-17T12:55:09;98603.63;;;17.27;31.57
77799;BME280;66989;50.426;15.352;2024-03-17T13:00:46;98604.50;;;17.46;33.88
77799;BME280;66989;50.426;15.352;2024-03-17T13:03:34;98601.22;;;18.75;30.68
77799;BME280;66989;50.426;15.352;2024-03-17T13:06:20;98588.06;;;20.71;29.25
77799;BME280;66989;50.426;15.352;2024-03-17T13:08:49;98582.47;;;22.43;27.49
77799;BME280;66989;50.426;15.352;2024-03-17T13:11:16;98572.59;;;23.96;25.42
77799;BME280;66989;50.426;15.352;2024-03-17T13:13:41;98567.25;;;24.52;24.95
77799;BME280;66989;50.426;15.352;2024-03-17T13:16:07;98568.25;;;23.74;25.04
77799;BME280;66989;50.426;15.352;2024-03-17T13:18:34;98568.44;;;24.43;24.25
77799;BME280;66989;50.426;15.352;2024-03-17T13:21:00;98557.88;;;25.18;23.15